MAPA DE AEROPUERTO

INFORMACIÓN METAR y TAF

METAR FOR ENGM
ADDS - METARS form results

(0526 UTC 20 September 2021)
Data provider http://aviationweather.gov/metar/data/
 
METAR text: ENGM 200520Z 05003KT CAVOK 07/04 Q1027 NOSIG
Conditions at: ENGM (OSLO/GARDERMOEN , NO) observed 0520 UTC 20 September 2021
Temperature: 7.0°C (45°F)
Dewpoint: 4.0°C (39°F) [RH = 81%]
Pressure (altimeter): 30.32 inches Hg (1027.0 mb)
Winds: from the NE (50 degrees) at 3 MPH (3 knots; 1.5 m/s)
Visibility: 6 or more miles (10+ km)
Ceiling: ceiling and visibility are OK
Clouds: unknown
Weather: no significant weather observed at this time

METAR text: ENGM 200450Z VRB01KT CAVOK 07/04 Q1027 NOSIG
Conditions at: ENGM (OSLO/GARDERMOEN , NO) observed 0450 UTC 20 September 2021
Temperature: 7.0°C (45°F)
Dewpoint: 4.0°C (39°F) [RH = 81%]
Pressure (altimeter): 30.32 inches Hg (1027.0 mb)
Winds: variable direction winds at 1 MPH (1 knots; 0.5 m/s)
Visibility: 6 or more miles (10+ km)
Ceiling: ceiling and visibility are OK
Clouds: unknown
Weather: no significant weather observed at this time

Forecast for: ENGM (OSLO/GARDERMOEN , NO)
Text: TAF ENGM 2000/2024 03005KT 9999 BKN040
Forecast period: 0000 to 1000 UTC 20 September 2021
Forecast type: FROM: standard forecast or significant change
Winds: from the NNE (30 degrees) at 6 MPH (5 knots; 2.6 m/s)
Visibility: 6 or more miles (10+ km)
Ceiling: 4000 feet AGL
Clouds: broken clouds at 4000 feet AGL
Weather: no significant weather forecast for this period
Text: BECMG 2010/2012 18010KT
Forecast period: 1000 UTC 20 September 2021 to 0000 UTC 21 September 2021
Forecast type: BECOMING: Conditions expected to become as follows by 1200 UTC 20 September 2021
Winds: from the S (180 degrees) at 12 MPH (10 knots; 5.1 m/s)
Visibility: 6 or more miles (10+ km)
Ceiling: 4000 feet AGL
Clouds: broken clouds at 4000 feet AGL
Weather: no significant weather forecast for this period